Rutledge, TN (37861)

12:20 PM EDT on September 05, 2015 (GMT -0400)
Washburn TN US | | Change Station
CLOSE
Current Station
Personal Weather Station
Location: Washburn, TN
Elevation: 1450 ft
Nearby Weather Stations

Elev 1450 ft 36.29 °N, 83.61 °W | Updated 8 seconds ago

Clear
Clear
82.6 °F
Feels Like 85 °F
N
0.0
Wind Variable Wind from East
Gusts 4.0 mph

Today
High -- | Low -- °F
--% Chance of Precip.
Yesterday
High -- | Low -- °F
Precip. -- in
7:08 AM 7:56 PM
Waning Gibbous, 47% visible
Pressure 30.18 in
Visibility 10.0 miles
Clouds Clear
Heat Index 85 °F
Dew Point 65 °F
Humidity 56%
Rainfall 0.00 in
Snow Depth Not available.
UV 9 out of 12
Pollen 9.70 out of 12
Air Quality Not available.
Flu Activity Not available.
METAR K1A6 051615Z AUTO 11003KT 10SM CLR 28/18 A3018 RMK AO2 T02830181
Pressure 30.18 in
Visibility 10.0 miles
Clouds Clear
Heat Index 85 °F
Dew Point 65 °F
Humidity 56%
Rainfall 0.00 in
Snow Depth Not available.
UV 9 out of 12
Pollen 9.70 out of 12
Air Quality Not available.
Flu Activity Not available.
METAR K1A6 051615Z AUTO 11003KT 10SM CLR 28/18 A3018 RMK AO2 T02830181

10-Day Weather Forecast

×

Almanac

Astronomy

Sep. 05, 2015 Rise Set
Actual Time
Civil Twilight
Nautical Twilight
Astronomical Twilight
Moon
Length of Visible Light
Length of Day
Tomorrow will be .
, % of the Moon is Illuminated

Today's Extremes

State Highs State Lows

Community

WunderPhotos

Upload Photos

1,852,495 photos uploaded!

WunderBlogs® & News

Nearby

Air Quality

  Air Quality AQ Index Pollutant
Not available.

Snow Depth

Station Depth Elevation

Earthquake Activity

City Distance Mag. Time & Date
Minimum magnitude displayed is 2.5.

Coastal Water Temperatures

Place Temperature

Stations

Nearby Weather Stations

Station Location Temp. Windchill Dew Point Humidity Wind Precip. Elev Updated Type